createdAt,value
2019-02-21T00:01:31.989Z,8.70
2019-02-21T00:04:01.447Z,8.70
2019-02-21T00:06:37.086Z,8.70
2019-02-21T00:09:13.372Z,8.70
2019-02-21T00:12:01.140Z,8.60
2019-02-21T00:14:30.629Z,8.60
2019-02-21T00:17:00.003Z,8.50
2019-02-21T00:19:29.702Z,8.50
2019-02-21T00:21:59.340Z,8.50
2019-02-21T00:24:28.915Z,8.50
2019-02-21T00:26:58.371Z,8.40
2019-02-21T00:29:27.776Z,8.40
2019-02-21T00:31:57.249Z,8.40
2019-02-21T00:34:26.612Z,8.30
2019-02-21T00:36:56.026Z,8.30
2019-02-21T00:39:25.406Z,8.30
2019-02-21T00:41:54.806Z,8.20
2019-02-21T00:44:24.154Z,8.20
2019-02-21T00:46:53.548Z,8.20
2019-02-21T00:49:22.996Z,8.10
2019-02-21T00:51:52.465Z,8.10
2019-02-21T00:54:21.896Z,8.10
2019-02-21T00:56:51.430Z,8.10
2019-02-21T00:59:20.900Z,8.00
2019-02-21T01:01:50.292Z,8.00
2019-02-21T01:04:19.684Z,8.00
2019-02-21T01:06:49.079Z,8.00
2019-02-21T01:09:18.452Z,8.00
2019-02-21T01:11:47.897Z,8.00
2019-02-21T01:14:17.440Z,7.90
2019-02-21T01:16:46.910Z,7.90
2019-02-21T01:19:16.392Z,7.90
2019-02-21T01:21:45.847Z,7.90
2019-02-21T01:24:15.239Z,7.80
2019-02-21T01:26:44.774Z,7.80
2019-02-21T01:29:14.244Z,7.80
2019-02-21T01:31:43.635Z,7.80
2019-02-21T01:34:13.159Z,7.80
2019-02-21T01:36:42.549Z,7.80
2019-02-21T01:39:11.916Z,7.80
2019-02-21T01:41:41.426Z,7.80
2019-02-21T01:44:10.853Z,7.80
2019-02-21T01:46:40.236Z,7.80
2019-02-21T01:49:09.622Z,7.80
2019-02-21T01:51:39.019Z,7.80
2019-02-21T01:54:08.408Z,7.90
2019-02-21T01:56:37.821Z,7.90
2019-02-21T01:59:07.969Z,7.90
2019-02-21T02:01:37.433Z,8.00
2019-02-21T02:04:06.871Z,8.00
2019-02-21T02:06:36.236Z,8.00
2019-02-21T02:09:07.848Z,8.00
2019-02-21T02:11:37.351Z,8.10
2019-02-21T02:14:06.758Z,8.10
2019-02-21T02:16:36.130Z,8.10
2019-02-21T02:19:05.518Z,8.20
2019-02-21T02:21:34.910Z,8.20
2019-02-21T02:24:04.394Z,8.20
2019-02-21T02:26:33.768Z,8.20
2019-02-21T02:29:03.182Z,8.20
2019-02-21T02:31:32.552Z,8.20
2019-02-21T02:34:02.006Z,8.20
2019-02-21T02:36:31.415Z,8.20
2019-02-21T02:39:00.914Z,8.20
2019-02-21T02:41:30.338Z,8.20
2019-02-21T02:43:59.750Z,8.20
2019-02-21T02:46:29.144Z,8.20
2019-02-21T02:48:58.622Z,8.10
2019-02-21T02:51:28.062Z,8.10
2019-02-21T02:53:57.529Z,8.20
2019-02-21T02:56:27.116Z,8.20
2019-02-21T02:58:56.484Z,8.20
2019-02-21T03:01:34.463Z,8.20
2019-02-21T03:03:57.010Z,8.10
2019-02-21T03:06:26.501Z,8.10
2019-02-21T03:08:55.865Z,8.10
2019-02-21T03:11:25.272Z,8.10
2019-02-21T03:13:54.662Z,8.10
2019-02-21T03:16:24.427Z,8.10
2019-02-21T03:18:53.810Z,8.00
2019-02-21T03:21:23.230Z,8.00
2019-02-21T03:23:52.638Z,8.00
2019-02-21T03:26:22.030Z,8.00
2019-02-21T03:28:51.419Z,8.10
2019-02-21T03:31:20.969Z,8.10
2019-02-21T03:33:50.415Z,8.10
2019-02-21T03:36:19.918Z,8.20
2019-02-21T03:38:49.729Z,8.20
2019-02-21T03:41:19.198Z,8.30
2019-02-21T03:43:48.585Z,8.30
2019-02-21T03:46:17.958Z,8.40
2019-02-21T03:48:47.357Z,8.40
2019-02-21T03:51:16.828Z,8.50
2019-02-21T03:53:46.376Z,8.50
2019-02-21T03:56:15.776Z,8.60
2019-02-21T03:58:45.422Z,8.60
2019-02-21T04:01:14.901Z,8.70
2019-02-21T04:03:44.361Z,8.70
2019-02-21T04:06:13.742Z,8.70
2019-02-21T04:08:43.134Z,8.70
2019-02-21T04:11:12.550Z,8.70
2019-02-21T04:13:42.000Z,8.70
2019-02-21T04:16:11.460Z,8.60
2019-02-21T04:18:40.861Z,8.60
2019-02-21T04:21:10.260Z,8.60
2019-02-21T04:23:39.660Z,8.50
2019-02-21T04:26:09.114Z,8.50
2019-02-21T04:28:38.678Z,8.50
2019-02-21T04:31:08.138Z,8.40
2019-02-21T04:33:37.511Z,8.40
2019-02-21T04:36:06.909Z,8.30
2019-02-21T04:38:36.266Z,8.30
2019-02-21T04:41:05.667Z,8.20
2019-02-21T04:43:35.062Z,8.20
2019-02-21T04:46:04.690Z,8.10
2019-02-21T04:48:34.157Z,8.10
2019-02-21T04:51:03.529Z,8.10
2019-02-21T04:53:32.926Z,8.00
2019-02-21T04:56:02.310Z,8.00
2019-02-21T04:58:31.766Z,7.90
2019-02-21T05:01:01.157Z,7.90
2019-02-21T05:03:30.616Z,7.90
2019-02-21T05:06:00.012Z,7.80
2019-02-21T05:08:29.410Z,7.80
2019-02-21T05:10:58.788Z,7.80
2019-02-21T05:13:28.205Z,7.70
2019-02-21T05:15:57.642Z,7.70
2019-02-21T05:18:27.029Z,7.70
2019-02-21T05:20:56.515Z,7.70
2019-02-21T05:23:26.562Z,7.70
2019-02-21T05:25:55.924Z,7.70
2019-02-21T05:28:26.962Z,7.70
2019-02-21T05:31:01.101Z,7.60
2019-02-21T05:33:50.244Z,7.60
2019-02-21T05:36:37.228Z,7.60
2019-02-21T05:39:08.250Z,7.60
2019-02-21T05:41:39.359Z,7.60
2019-02-21T05:44:28.042Z,7.60
2019-02-21T05:47:01.828Z,7.60
2019-02-21T05:49:35.568Z,7.60
2019-02-21T05:52:09.101Z,7.60
2019-02-21T05:54:42.962Z,7.60
2019-02-21T05:57:30.138Z,7.60
2019-02-21T06:00:07.163Z,7.60
2019-02-21T06:02:53.854Z,7.60
2019-02-21T06:05:27.848Z,7.60
2019-02-21T06:07:59.025Z,7.50
2019-02-21T06:10:32.582Z,7.60
2019-02-21T06:13:18.764Z,7.50
2019-02-21T06:16:07.738Z,7.60
2019-02-21T06:18:47.610Z,7.60
2019-02-21T06:21:33.406Z,7.50
2019-02-21T06:24:04.464Z,7.50
2019-02-21T06:26:39.581Z,7.50
2019-02-21T06:29:10.646Z,7.50
2019-02-21T06:31:40.029Z,7.50
2019-02-21T06:34:09.436Z,7.50
2019-02-21T06:36:38.817Z,7.50
2019-02-21T06:39:08.301Z,7.50
2019-02-21T06:41:37.746Z,7.50
2019-02-21T06:44:07.182Z,7.50
2019-02-21T06:46:36.571Z,7.50
2019-02-21T06:49:06.033Z,7.50
2019-02-21T06:51:35.428Z,7.50
2019-02-21T06:54:04.889Z,7.50
2019-02-21T06:56:34.345Z,7.50
2019-02-21T06:59:03.734Z,7.50
2019-02-21T07:01:33.213Z,7.50
2019-02-21T07:04:02.700Z,7.60
2019-02-21T07:06:32.567Z,7.60
2019-02-21T07:09:02.074Z,7.60
2019-02-21T07:11:31.563Z,7.60
2019-02-21T07:14:00.919Z,7.60
2019-02-21T07:16:30.370Z,7.60
2019-02-21T07:18:59.819Z,7.70
2019-02-21T07:21:29.195Z,7.70
2019-02-21T07:23:58.687Z,7.70
2019-02-21T07:26:28.111Z,7.70
2019-02-21T07:28:58.356Z,7.80
2019-02-21T07:31:29.239Z,7.80
2019-02-21T07:34:01.413Z,7.90
2019-02-21T07:36:30.814Z,8.00
2019-02-21T07:39:13.714Z,8.10
2019-02-21T07:41:31.300Z,8.20
2019-02-21T07:44:11.380Z,8.20
2019-02-21T07:46:32.469Z,8.30
2019-02-21T07:49:01.955Z,8.40
2019-02-21T07:51:31.401Z,8.40
2019-02-21T07:54:00.881Z,8.50
2019-02-21T07:56:41.466Z,8.60
2019-02-21T07:59:04.341Z,8.60
2019-02-21T08:01:33.813Z,8.70
2019-02-21T08:04:03.259Z,8.80
2019-02-21T08:06:32.743Z,8.90
2019-02-21T08:09:02.216Z,8.90
2019-02-21T08:11:31.634Z,9.10
2019-02-21T08:14:01.210Z,9.10
2019-02-21T08:16:30.613Z,9.20
2019-02-21T08:19:00.060Z,9.30
2019-02-21T08:21:29.579Z,9.30
2019-02-21T08:23:59.298Z,9.40
2019-02-21T08:26:28.919Z,9.40
2019-02-21T08:28:58.385Z,9.50
2019-02-21T08:31:27.766Z,9.60
2019-02-21T08:33:59.077Z,9.70
2019-02-21T08:36:28.573Z,9.80
2019-02-21T08:38:57.965Z,9.90
2019-02-21T08:41:27.427Z,10.00
2019-02-21T08:43:57.514Z,10.00
2019-02-21T08:46:27.015Z,10.10
2019-02-21T08:48:56.471Z,10.10
2019-02-21T08:51:25.925Z,10.20
2019-02-21T08:53:55.483Z,10.20
2019-02-21T08:56:24.933Z,10.30
2019-02-21T08:58:54.387Z,10.30
2019-02-21T09:01:23.846Z,10.40
2019-02-21T09:03:53.333Z,10.40
2019-02-21T09:06:24.719Z,10.40
2019-02-21T09:08:54.001Z,10.40
2019-02-21T09:11:23.424Z,10.50
2019-02-21T09:13:52.901Z,10.50
2019-02-21T09:16:22.359Z,10.60
2019-02-21T09:18:51.809Z,10.70
2019-02-21T09:21:21.265Z,10.80
2019-02-21T09:23:50.755Z,10.90
2019-02-21T09:26:21.669Z,11.00
2019-02-21T09:28:51.228Z,11.10
2019-02-21T09:31:20.856Z,11.20
2019-02-21T09:33:50.341Z,11.20
2019-02-21T09:36:19.821Z,11.30
2019-02-21T09:38:49.191Z,11.30
2019-02-21T09:41:18.681Z,11.30
2019-02-21T09:43:48.204Z,11.30
2019-02-21T09:46:18.481Z,11.30
2019-02-21T09:48:47.967Z,11.30
2019-02-21T09:51:18.327Z,11.30
2019-02-21T09:53:47.793Z,11.30
2019-02-21T09:56:17.187Z,11.30
2019-02-21T09:58:47.483Z,11.30
2019-02-21T10:01:16.875Z,11.40
2019-02-21T10:03:46.384Z,11.40
2019-02-21T10:06:15.831Z,11.50
2019-02-21T10:08:45.219Z,11.60
2019-02-21T10:11:14.613Z,11.60
2019-02-21T10:13:44.037Z,11.80
2019-02-21T10:16:13.509Z,12.00
2019-02-21T10:18:42.967Z,12.10
2019-02-21T10:21:12.361Z,12.30
2019-02-21T10:23:42.248Z,12.50
2019-02-21T10:26:11.867Z,12.70
2019-02-21T10:28:41.297Z,12.90
2019-02-21T10:31:10.671Z,13.00
2019-02-21T10:33:47.044Z,13.10
2019-02-21T10:36:11.245Z,13.20
2019-02-21T10:38:40.689Z,13.30
2019-02-21T10:41:10.091Z,13.40
2019-02-21T10:43:39.469Z,13.50
2019-02-21T10:46:08.957Z,13.60
2019-02-21T10:48:38.363Z,13.80
2019-02-21T10:51:07.761Z,13.90
2019-02-21T10:53:37.233Z,14.10
2019-02-21T10:56:06.656Z,14.20
2019-02-21T10:58:36.101Z,14.30
2019-02-21T11:01:05.709Z,14.30
2019-02-21T11:03:35.188Z,14.30
2019-02-21T11:06:04.743Z,14.30
2019-02-21T11:08:34.306Z,14.30
2019-02-21T11:11:04.835Z,14.40
2019-02-21T11:13:34.403Z,14.50
2019-02-21T11:16:03.873Z,14.50
2019-02-21T11:18:33.329Z,14.60
2019-02-21T11:21:02.819Z,14.70
2019-02-21T11:23:32.332Z,14.80
2019-02-21T11:26:01.732Z,14.90
2019-02-21T11:28:31.297Z,15.00
2019-02-21T11:31:00.728Z,15.00
2019-02-21T11:33:30.187Z,15.00
2019-02-21T11:35:59.659Z,14.90
2019-02-21T11:38:29.109Z,14.80
2019-02-21T11:40:58.525Z,14.80
2019-02-21T11:43:27.985Z,14.80
2019-02-21T11:45:57.557Z,14.80
2019-02-21T11:48:27.117Z,14.90
2019-02-21T11:50:56.581Z,15.00
2019-02-21T11:53:25.956Z,15.00
2019-02-21T11:55:55.343Z,15.00
2019-02-21T11:58:24.868Z,15.00
2019-02-21T12:00:54.295Z,15.10
2019-02-21T12:03:23.733Z,15.10
2019-02-21T12:05:53.202Z,15.20
2019-02-21T12:08:22.708Z,15.20
2019-02-21T12:10:52.180Z,15.20
2019-02-21T12:13:21.662Z,15.10
2019-02-21T12:15:51.045Z,15.10
2019-02-21T12:18:20.450Z,15.10
2019-02-21T12:20:49.921Z,15.10
2019-02-21T12:23:19.299Z,15.00
2019-02-21T12:25:48.682Z,15.00
2019-02-21T12:28:18.201Z,15.00
2019-02-21T12:30:47.668Z,15.00
2019-02-21T12:33:17.200Z,15.00
2019-02-21T12:35:46.609Z,15.10
2019-02-21T12:38:16.007Z,15.20
2019-02-21T12:40:45.503Z,15.30
2019-02-21T12:43:14.946Z,15.40
2019-02-21T12:45:44.411Z,15.50
2019-02-21T12:48:13.795Z,15.50
2019-02-21T12:50:44.462Z,15.50
2019-02-21T12:53:14.119Z,15.40
2019-02-21T12:55:43.552Z,15.30
2019-02-21T12:58:12.956Z,15.20
2019-02-21T13:00:42.409Z,15.10
2019-02-21T13:03:11.878Z,15.00
2019-02-21T13:05:41.537Z,15.00
2019-02-21T13:08:13.098Z,15.00
2019-02-21T13:10:42.641Z,15.00
2019-02-21T13:13:12.110Z,15.00
2019-02-21T13:15:41.589Z,15.00
2019-02-21T13:18:15.809Z,15.00
2019-02-21T13:20:42.061Z,15.10
2019-02-21T13:23:11.502Z,15.20
2019-02-21T13:25:40.898Z,15.30
2019-02-21T13:28:11.278Z,15.50
2019-02-21T13:30:40.752Z,15.50
2019-02-21T13:33:10.190Z,15.60
2019-02-21T13:35:39.592Z,15.70
2019-02-21T13:38:08.998Z,15.80
2019-02-21T13:40:38.402Z,15.90
2019-02-21T13:43:07.878Z,16.00
2019-02-21T13:45:37.342Z,16.10
2019-02-21T13:48:06.795Z,16.20
2019-02-21T13:50:36.173Z,16.30
2019-02-21T13:53:05.559Z,16.30
2019-02-21T13:55:34.980Z,16.40
2019-02-21T13:58:04.524Z,16.30
2019-02-21T14:00:34.290Z,16.40
2019-02-21T14:03:03.710Z,16.30
2019-02-21T14:05:33.160Z,16.30
2019-02-21T14:08:02.560Z,16.30
2019-02-21T14:10:32.024Z,16.30
2019-02-21T14:13:01.445Z,16.30
2019-02-21T14:15:30.882Z,16.40
2019-02-21T14:18:00.366Z,16.40
2019-02-21T14:20:30.915Z,16.40
2019-02-21T14:23:00.330Z,16.40
2019-02-21T14:25:40.112Z,16.40
2019-02-21T14:28:00.789Z,16.30
2019-02-21T14:30:30.271Z,16.30
2019-02-21T14:32:59.704Z,16.20
2019-02-21T14:35:29.181Z,16.10
2019-02-21T14:37:58.640Z,16.00
2019-02-21T14:40:28.037Z,16.00
2019-02-21T14:42:58.419Z,15.90
2019-02-21T14:45:27.925Z,15.80
2019-02-21T14:47:57.414Z,15.80
2019-02-21T14:50:26.817Z,15.70
2019-02-21T14:52:56.401Z,15.60
2019-02-21T14:55:25.842Z,15.60
2019-02-21T14:57:55.344Z,15.50
2019-02-21T15:00:28.897Z,15.50
2019-02-21T15:02:58.414Z,15.50
2019-02-21T15:05:29.493Z,15.50
2019-02-21T15:07:58.953Z,15.50
2019-02-21T15:10:28.410Z,15.60
2019-02-21T15:12:59.539Z,15.60
2019-02-21T15:15:30.632Z,15.60
2019-02-21T15:18:07.535Z,15.60
2019-02-21T15:20:36.979Z,15.60
2019-02-21T15:23:02.216Z,15.60
2019-02-21T15:25:31.674Z,15.60
2019-02-21T15:28:01.111Z,15.50
2019-02-21T15:30:30.524Z,15.50
2019-02-21T15:33:00.028Z,15.50
2019-02-21T15:35:29.427Z,15.50
2019-02-21T15:38:00.602Z,15.50
2019-02-21T15:40:30.108Z,15.50
2019-02-21T15:42:59.520Z,15.60
2019-02-21T15:45:31.960Z,15.60
2019-02-21T15:48:01.455Z,15.60
2019-02-21T15:50:30.828Z,15.70
2019-02-21T15:53:00.250Z,15.80
2019-02-21T15:55:32.054Z,15.80
2019-02-21T15:58:04.247Z,15.80
2019-02-21T16:00:31.976Z,15.80
2019-02-21T16:03:01.510Z,15.80
2019-02-21T16:05:31.034Z,15.70
2019-02-21T16:08:00.431Z,15.70
2019-02-21T16:10:31.557Z,15.70
2019-02-21T16:13:04.178Z,15.70
2019-02-21T16:15:32.100Z,15.70
2019-02-21T16:18:02.442Z,15.70
2019-02-21T16:20:33.002Z,15.60
2019-02-21T16:23:02.485Z,15.60
2019-02-21T16:25:33.145Z,15.50
2019-02-21T16:28:02.570Z,15.50
2019-02-21T16:30:32.246Z,15.40
2019-02-21T16:33:01.670Z,15.40
2019-02-21T16:35:32.046Z,15.30
2019-02-21T16:38:01.539Z,15.20
2019-02-21T16:40:31.088Z,15.20
2019-02-21T16:43:00.595Z,15.20
2019-02-21T16:45:42.518Z,15.20
2019-02-21T16:48:01.190Z,15.20
2019-02-21T16:50:30.721Z,15.20
2019-02-21T16:53:00.288Z,15.20
2019-02-21T16:55:29.748Z,15.20
2019-02-21T16:57:59.205Z,15.20
2019-02-21T17:00:42.265Z,15.10
2019-02-21T17:02:59.894Z,15.10
2019-02-21T17:05:30.280Z,15.00
2019-02-21T17:08:00.666Z,15.00
2019-02-21T17:10:30.239Z,15.00
2019-02-21T17:12:59.664Z,14.90
2019-02-21T17:15:29.106Z,14.90
2019-02-21T17:18:03.669Z,14.80
2019-02-21T17:20:29.809Z,14.90
2019-02-21T17:22:59.289Z,14.80
2019-02-21T17:25:28.814Z,14.80
2019-02-21T17:27:58.381Z,14.80
2019-02-21T17:30:27.841Z,14.80
2019-02-21T17:32:57.462Z,14.80
2019-02-21T17:35:27.038Z,14.80
2019-02-21T17:37:56.625Z,14.80
2019-02-21T17:40:26.455Z,14.80
2019-02-21T17:42:55.877Z,14.80
2019-02-21T17:45:25.416Z,14.80
2019-02-21T17:47:54.820Z,14.80
2019-02-21T17:50:24.305Z,14.90
2019-02-21T17:52:53.903Z,14.90
2019-02-21T17:55:23.458Z,14.90
2019-02-21T17:57:53.086Z,14.90
2019-02-21T18:00:37.998Z,14.90
2019-02-21T18:03:07.463Z,14.80
2019-02-21T18:05:37.063Z,14.80
2019-02-21T18:08:06.703Z,14.80
2019-02-21T18:10:36.206Z,14.80
2019-02-21T18:13:05.604Z,14.80
2019-02-21T18:15:35.236Z,14.70
2019-02-21T18:18:04.817Z,14.70
2019-02-21T18:20:34.365Z,14.60
2019-02-21T18:23:03.953Z,14.60
2019-02-21T18:25:42.433Z,14.50
2019-02-21T18:28:11.816Z,14.50
2019-02-21T18:30:41.423Z,14.50
2019-02-21T18:33:10.909Z,14.40
2019-02-21T18:35:40.573Z,14.40
2019-02-21T18:38:10.069Z,14.40
2019-02-21T18:40:40.488Z,14.30
2019-02-21T18:43:10.090Z,14.30
2019-02-21T18:45:39.661Z,14.30
2019-02-21T18:48:09.149Z,14.30
2019-02-21T18:50:38.779Z,14.30
2019-02-21T18:53:09.878Z,14.30
2019-02-21T18:55:39.319Z,14.30
2019-02-21T18:58:08.879Z,14.30
2019-02-21T19:00:39.371Z,14.30
2019-02-21T19:03:08.857Z,14.30
2019-02-21T19:05:38.347Z,14.30
2019-02-21T19:08:07.919Z,14.40
2019-02-21T19:10:37.492Z,14.40
2019-02-21T19:13:07.933Z,14.30
2019-02-21T19:15:37.490Z,14.40
2019-02-21T19:20:54.817Z,14.40
2019-02-21T19:23:24.275Z,14.40
2019-02-21T19:25:53.845Z,14.30
2019-02-21T19:28:23.398Z,14.30
2019-02-21T19:30:59.017Z,14.30
2019-02-21T19:33:28.475Z,14.30
2019-02-21T19:35:58.007Z,14.30
2019-02-21T19:38:27.527Z,14.30
2019-02-21T19:40:57.061Z,14.30
2019-02-21T19:43:26.535Z,14.20
2019-02-21T19:45:55.960Z,14.20
2019-02-21T19:48:26.425Z,14.10
2019-02-21T19:50:56.061Z,14.10
2019-02-21T19:53:25.669Z,14.00
2019-02-21T19:55:55.135Z,14.00
2019-02-21T19:58:25.003Z,14.00
2019-02-21T20:00:54.705Z,13.90
2019-02-21T20:03:24.271Z,13.80
2019-02-21T20:05:53.758Z,13.80
2019-02-21T20:08:27.207Z,13.80
2019-02-21T20:10:56.754Z,13.70
2019-02-21T20:13:26.349Z,13.70
2019-02-21T20:15:55.778Z,13.80
2019-02-21T20:18:26.313Z,13.70
2019-02-21T20:21:01.999Z,13.70
2019-02-21T20:23:31.657Z,13.80
2019-02-21T20:26:19.639Z,13.70
2019-02-21T20:28:49.107Z,13.80
2019-02-21T20:31:18.783Z,13.70
2019-02-21T20:33:48.345Z,13.70
2019-02-21T20:36:17.973Z,13.70
2019-02-21T20:38:47.606Z,13.80
2019-02-21T20:41:17.126Z,13.80
2019-02-21T20:43:46.659Z,13.70
2019-02-21T20:46:16.241Z,13.80
2019-02-21T20:48:49.699Z,13.80
2019-02-21T20:51:20.464Z,13.80
2019-02-21T20:53:50.081Z,13.70
2019-02-21T20:56:19.682Z,13.80
2019-02-21T20:58:49.131Z,13.80
2019-02-21T21:01:32.983Z,13.70
2019-02-21T21:04:02.503Z,13.80
2019-02-21T21:06:32.081Z,13.70
2019-02-21T21:09:01.622Z,13.80
2019-02-21T21:14:12.207Z,13.70
2019-02-21T21:16:41.751Z,13.70
2019-02-21T21:19:11.213Z,13.70
2019-02-21T21:21:40.719Z,13.70
2019-02-21T21:24:10.270Z,13.80
2019-02-21T21:26:39.809Z,13.70
2019-02-21T21:29:09.285Z,13.70
2019-02-21T21:31:38.777Z,13.80
2019-02-21T21:34:08.383Z,13.80
2019-02-21T21:36:37.971Z,13.80
2019-02-21T21:41:49.063Z,13.80
2019-02-21T21:44:18.539Z,13.80
2019-02-21T21:46:48.113Z,13.80
2019-02-21T21:49:17.567Z,13.80
2019-02-21T21:51:47.041Z,13.80
2019-02-21T21:54:18.246Z,13.80
2019-02-21T21:56:47.634Z,13.70
2019-02-21T21:59:17.139Z,13.70
2019-02-21T22:02:05.282Z,13.80
2019-02-21T22:04:34.795Z,13.70
2019-02-21T22:07:10.128Z,13.70
2019-02-21T22:09:39.632Z,13.70
2019-02-21T22:12:09.175Z,13.70
2019-02-21T22:14:38.852Z,13.70
2019-02-21T22:17:08.355Z,13.70
2019-02-21T22:19:38.830Z,13.60
2019-02-21T22:22:08.382Z,13.60
2019-02-21T22:24:37.858Z,13.60
2019-02-21T22:27:07.417Z,13.60
2019-02-21T22:29:36.961Z,13.60
2019-02-21T22:32:06.439Z,13.60
2019-02-21T22:34:35.889Z,13.60
2019-02-21T22:37:05.354Z,13.70
2019-02-21T22:39:34.767Z,13.60
2019-02-21T22:42:04.162Z,13.70
2019-02-21T22:44:33.722Z,13.60
2019-02-21T22:47:03.225Z,13.60
2019-02-21T22:49:32.706Z,13.70
2019-02-21T22:52:02.212Z,13.60
2019-02-21T22:54:31.697Z,13.60
2019-02-21T22:57:01.117Z,13.50
2019-02-21T22:59:30.689Z,13.50
2019-02-21T23:02:00.635Z,13.40
2019-02-21T23:04:33.199Z,13.30
2019-02-21T23:07:05.823Z,13.20
2019-02-21T23:09:35.453Z,13.10
2019-02-21T23:12:05.018Z,13.10
2019-02-21T23:14:34.728Z,13.00
2019-02-21T23:17:04.292Z,12.90
2019-02-21T23:19:33.784Z,12.80
2019-02-21T23:22:03.186Z,12.80
2019-02-21T23:24:32.860Z,12.70
2019-02-21T23:27:02.438Z,12.70
2019-02-21T23:29:31.990Z,12.60
2019-02-21T23:32:03.281Z,12.60
2019-02-21T23:34:37.178Z,12.50
2019-02-21T23:37:06.748Z,12.50
2019-02-21T23:39:38.620Z,12.40
2019-02-21T23:42:07.356Z,12.40
2019-02-21T23:44:36.760Z,12.30
2019-02-21T23:47:06.390Z,12.30
2019-02-21T23:49:35.811Z,12.20
2019-02-21T23:52:05.328Z,12.20
2019-02-21T23:54:34.825Z,12.10
2019-02-21T23:57:04.524Z,12.10
2019-02-21T23:59:34.119Z,12.00
